sensor_id;sensor_type;location;lat;lon;timestamp;pressure;altitude;pressure_sealevel;temperature;humidity
12358;BME280;6243;51.244;6.774;2023-04-10T00:00:58;152381.09;;;19.47;41.01
12358;BME280;6243;51.244;6.774;2023-04-10T00:03:24;152454.03;;;19.76;41.17
12358;BME280;6243;51.244;6.774;2023-04-10T00:05:50;152570.63;;;20.22;40.30
12358;BME280;6243;51.244;6.774;2023-04-10T00:08:16;152363.16;;;19.40;41.34
12358;BME280;6243;51.244;6.774;2023-04-10T00:10:42;152400.31;;;19.55;41.21
12358;BME280;6243;51.244;6.774;2023-04-10T00:13:07;152506.53;;;19.97;40.51
12358;BME280;6243;51.244;6.774;2023-04-10T00:15:33;152473.25;;;19.83;40.76
12358;BME280;6243;51.244;6.774;2023-04-10T00:17:58;152463.03;;;19.79;40.90
12358;BME280;6243;51.244;6.774;2023-04-10T00:20:24;152418.25;;;19.62;41.03
12358;BME280;6243;51.244;6.774;2023-04-10T00:22:49;152477.09;;;19.85;40.62
12358;BME280;6243;51.244;6.774;2023-04-10T00:25:16;152598.84;;;20.33;40.24
12358;BME280;6243;51.244;6.774;2023-04-10T00:27:42;152582.13;;;20.26;40.22
12358;BME280;6243;51.244;6.774;2023-04-10T00:30:08;152447.69;;;19.73;40.86
12358;BME280;6243;51.244;6.774;2023-04-10T00:32:33;152313.22;;;19.21;41.36
12358;BME280;6243;51.244;6.774;2023-04-10T00:34:59;152246.66;;;18.94;41.96
12358;BME280;6243;51.244;6.774;2023-04-10T00:37:24;152424.63;;;19.64;40.94
12358;BME280;6243;51.244;6.774;2023-04-10T00:39:50;152407.97;;;19.58;41.17
12358;BME280;6243;51.244;6.774;2023-04-10T00:42:17;152347.78;;;19.34;41.62
12358;BME280;6243;51.244;6.774;2023-04-10T00:44:42;152214.69;;;18.82;42.47
12358;BME280;6243;51.244;6.774;2023-04-10T00:47:08;152292.72;;;19.12;41.72
12358;BME280;6243;51.244;6.774;2023-04-10T00:49:34;152463.03;;;19.79;40.75
12358;BME280;6243;51.244;6.774;2023-04-10T00:51:59;152168.66;;;18.64;42.57
12358;BME280;6243;51.244;6.774;2023-04-10T00:54:25;152400.31;;;19.55;41.34
12358;BME280;6243;51.244;6.774;2023-04-10T00:56:51;152418.25;;;19.62;41.15
12358;BME280;6243;51.244;6.774;2023-04-10T00:59:18;152505.28;;;19.96;40.50
12358;BME280;6243;51.244;6.774;2023-04-10T01:01:43;152441.28;;;19.71;41.05
12358;BME280;6243;51.244;6.774;2023-04-10T01:04:09;152491.19;;;19.91;40.84
12358;BME280;6243;51.244;6.774;2023-04-10T01:06:48;152492.47;;;19.91;40.88
12358;BME280;6243;51.244;6.774;2023-04-10T01:09:21;152457.91;;;19.77;41.17
12358;BME280;6243;51.244;6.774;2023-04-10T01:11:53;152492.47;;;19.91;40.99
12358;BME280;6243;51.244;6.774;2023-04-10T01:14:26;152433.56;;;19.68;41.41
12358;BME280;6243;51.244;6.774;2023-04-10T01:16:59;152338.78;;;19.31;41.78
12358;BME280;6243;51.244;6.774;2023-04-10T01:19:38;152375.97;;;19.45;41.66
12358;BME280;6243;51.244;6.774;2023-04-10T01:22:09;152340.09;;;19.31;41.94
12358;BME280;6243;51.244;6.774;2023-04-10T01:24:48;152239.03;;;18.91;42.91
12358;BME280;6243;51.244;6.774;2023-04-10T01:27:27;152242.84;;;18.93;42.60
12358;BME280;6243;51.244;6.774;2023-04-10T01:30:00;152387.50;;;19.50;41.82
12358;BME280;6243;51.244;6.774;2023-04-10T01:32:28;152347.78;;;19.34;41.88
12358;BME280;6243;51.244;6.774;2023-04-10T01:34:58;152269.69;;;19.03;42.16
12358;BME280;6243;51.244;6.774;2023-04-10T01:37:29;152254.34;;;18.97;42.49
12358;BME280;6243;51.244;6.774;2023-04-10T01:39:59;152240.25;;;18.92;42.76
12358;BME280;6243;51.244;6.774;2023-04-10T01:42:27;152286.31;;;19.10;42.38
12358;BME280;6243;51.244;6.774;2023-04-10T01:44:58;152251.78;;;18.96;42.60
12358;BME280;6243;51.244;6.774;2023-04-10T01:47:25;152367.00;;;19.42;42.07
12358;BME280;6243;51.244;6.774;2023-04-10T01:49:52;152162.25;;;18.61;42.72
12358;BME280;6243;51.244;6.774;2023-04-10T01:52:18;152134.13;;;18.50;43.34
12358;BME280;6243;51.244;6.774;2023-04-10T01:54:45;152185.28;;;18.70;42.80
12358;BME280;6243;51.244;6.774;2023-04-10T01:57:11;152232.63;;;18.89;42.36
12358;BME280;6243;51.244;6.774;2023-04-10T01:59:37;152306.81;;;19.18;42.33
12358;BME280;6243;51.244;6.774;2023-04-10T02:02:04;152050.94;;;18.17;43.67
12358;BME280;6243;51.244;6.774;2023-04-10T02:04:30;152338.78;;;19.31;42.17
12358;BME280;6243;51.244;6.774;2023-04-10T02:07:01;152095.66;;;18.35;43.50
12358;BME280;6243;51.244;6.774;2023-04-10T02:09:34;152053.50;;;18.18;43.76
12358;BME280;6243;51.244;6.774;2023-04-10T02:12:04;152221.09;;;18.84;43.04
12358;BME280;6243;51.244;6.774;2023-04-10T02:14:31;152141.75;;;18.53;43.40
12358;BME280;6243;51.244;6.774;2023-04-10T02:16:58;152259.47;;;18.99;42.72
12358;BME280;6243;51.244;6.774;2023-04-10T02:19:26;152066.25;;;18.23;43.93
12358;BME280;6243;51.244;6.774;2023-04-10T02:21:53;152361.88;;;19.40;42.10
12358;BME280;6243;51.244;6.774;2023-04-10T02:24:20;152200.59;;;18.76;43.18
12358;BME280;6243;51.244;6.774;2023-04-10T02:26:46;152180.16;;;18.68;42.99
12358;BME280;6243;51.244;6.774;2023-04-10T02:29:12;152035.59;;;18.11;44.21
12358;BME280;6243;51.244;6.774;2023-04-10T02:31:38;151848.91;;;17.38;45.75
12358;BME280;6243;51.244;6.774;2023-04-10T02:34:04;152056.03;;;18.19;44.22
12358;BME280;6243;51.244;6.774;2023-04-10T02:36:31;152204.44;;;18.78;43.38
12358;BME280;6243;51.244;6.774;2023-04-10T02:38:56;152182.69;;;18.69;43.20
12358;BME280;6243;51.244;6.774;2023-04-10T02:41:22;152082.88;;;18.30;43.72
12358;BME280;6243;51.244;6.774;2023-04-10T02:43:47;152221.09;;;18.84;43.05
12358;BME280;6243;51.244;6.774;2023-04-10T02:46:13;152068.84;;;18.24;43.90
12358;BME280;6243;51.244;6.774;2023-04-10T02:48:38;152297.84;;;19.14;42.29
12358;BME280;6243;51.244;6.774;2023-04-10T02:51:04;152218.53;;;18.83;43.35
12358;BME280;6243;51.244;6.774;2023-04-10T02:53:32;152263.28;;;19.01;42.75
12358;BME280;6243;51.244;6.774;2023-04-10T02:55:58;151854.00;;;17.40;45.55
12358;BME280;6243;51.244;6.774;2023-04-10T02:58:23;152123.84;;;18.46;43.72
12358;BME280;6243;51.244;6.774;2023-04-10T03:00:50;152098.25;;;18.36;43.99
12358;BME280;6243;51.244;6.774;2023-04-10T03:03:15;152099.53;;;18.36;43.35
12358;BME280;6243;51.244;6.774;2023-04-10T03:05:41;152204.44;;;18.78;43.22
12358;BME280;6243;51.244;6.774;2023-04-10T03:08:06;152300.41;;;19.16;42.34
12358;BME280;6243;51.244;6.774;2023-04-10T03:10:33;152144.34;;;18.54;43.46
12358;BME280;6243;51.244;6.774;2023-04-10T03:12:59;152114.88;;;18.42;43.73
12358;BME280;6243;51.244;6.774;2023-04-10T03:15:24;151897.50;;;17.57;44.46
12358;BME280;6243;51.244;6.774;2023-04-10T03:17:50;152020.22;;;18.05;44.10
12358;BME280;6243;51.244;6.774;2023-04-10T03:20:15;152024.09;;;18.07;44.40
12358;BME280;6243;51.244;6.774;2023-04-10T03:22:41;152143.06;;;18.54;43.58
12358;BME280;6243;51.244;6.774;2023-04-10T03:25:07;152012.59;;;18.02;43.92
12358;BME280;6243;51.244;6.774;2023-04-10T03:27:34;152094.38;;;18.34;43.90
12358;BME280;6243;51.244;6.774;2023-04-10T03:30:00;151970.38;;;17.86;44.14
12358;BME280;6243;51.244;6.774;2023-04-10T03:32:25;151999.78;;;17.97;44.37
12358;BME280;6243;51.244;6.774;2023-04-10T03:34:51;152112.28;;;18.41;43.86
12358;BME280;6243;51.244;6.774;2023-04-10T03:37:16;151940.97;;;17.74;44.81
12358;BME280;6243;51.244;6.774;2023-04-10T03:39:41;152155.84;;;18.59;43.74
12358;BME280;6243;51.244;6.774;2023-04-10T03:42:07;152035.59;;;18.11;44.42
12358;BME280;6243;51.244;6.774;2023-04-10T03:44:34;152017.69;;;18.04;44.29
12358;BME280;6243;51.244;6.774;2023-04-10T03:46:59;152155.84;;;18.59;43.70
12358;BME280;6243;51.244;6.774;2023-04-10T03:49:25;151891.16;;;17.54;45.22
12358;BME280;6243;51.244;6.774;2023-04-10T03:51:51;151924.38;;;17.67;45.17
12358;BME280;6243;51.244;6.774;2023-04-10T03:54:16;151834.81;;;17.32;45.69
12358;BME280;6243;51.244;6.774;2023-04-10T03:56:42;152043.25;;;18.14;44.44
12358;BME280;6243;51.244;6.774;2023-04-10T03:59:07;152149.44;;;18.56;43.70
12358;BME280;6243;51.244;6.774;2023-04-10T04:01:34;152227.50;;;18.87;43.21
12358;BME280;6243;51.244;6.774;2023-04-10T04:04:00;151948.66;;;17.77;44.88
12358;BME280;6243;51.244;6.774;2023-04-10T04:06:25;151883.47;;;17.51;45.34
12358;BME280;6243;51.244;6.774;2023-04-10T04:08:51;151896.25;;;17.56;45.48
12358;BME280;6243;51.244;6.774;2023-04-10T04:11:16;151914.16;;;17.63;45.56
12358;BME280;6243;51.244;6.774;2023-04-10T04:13:42;151816.94;;;17.25;45.75
12358;BME280;6243;51.244;6.774;2023-04-10T04:16:08;151956.28;;;17.80;45.24
12358;BME280;6243;51.244;6.774;2023-04-10T04:18:35;152015.13;;;18.03;44.63
12358;BME280;6243;51.244;6.774;2023-04-10T04:21:01;151856.59;;;17.41;45.44
12358;BME280;6243;51.244;6.774;2023-04-10T04:23:26;151926.91;;;17.68;45.01
12358;BME280;6243;51.244;6.774;2023-04-10T04:25:52;152052.22;;;18.18;44.43
12358;BME280;6243;51.244;6.774;2023-04-10T04:28:18;152123.84;;;18.46;44.05
12358;BME280;6243;51.244;6.774;2023-04-10T04:30:44;152093.13;;;18.34;44.11
12358;BME280;6243;51.244;6.774;2023-04-10T04:33:09;152149.44;;;18.56;43.64
12358;BME280;6243;51.244;6.774;2023-04-10T04:35:36;152136.66;;;18.51;43.65
12358;BME280;6243;51.244;6.774;2023-04-10T04:38:01;151972.91;;;17.87;44.63
12358;BME280;6243;51.244;6.774;2023-04-10T04:40:27;151924.38;;;17.67;44.89
12358;BME280;6243;51.244;6.774;2023-04-10T04:42:52;152027.91;;;18.08;44.56
12358;BME280;6243;51.244;6.774;2023-04-10T04:45:18;152072.66;;;18.26;44.08
12358;BME280;6243;51.244;6.774;2023-04-10T04:47:43;151778.63;;;17.10;46.33
12358;BME280;6243;51.244;6.774;2023-04-10T04:50:09;151777.34;;;17.10;46.45
12358;BME280;6243;51.244;6.774;2023-04-10T04:52:36;151855.31;;;17.40;45.54
12358;BME280;6243;51.244;6.774;2023-04-10T04:55:01;151673.88;;;16.69;47.09
12358;BME280;6243;51.244;6.774;2023-04-10T04:57:27;151616.34;;;16.46;46.98
12358;BME280;6243;51.244;6.774;2023-04-10T04:59:53;151854.00;;;17.40;45.54
12358;BME280;6243;51.244;6.774;2023-04-10T05:02:18;151814.41;;;17.24;46.00
12358;BME280;6243;51.244;6.774;2023-04-10T05:04:44;151693.03;;;16.76;46.96
12358;BME280;6243;51.244;6.774;2023-04-10T05:07:09;151873.19;;;17.47;45.65
12358;BME280;6243;51.244;6.774;2023-04-10T05:09:36;151635.56;;;16.54;46.81
12358;BME280;6243;51.244;6.774;2023-04-10T05:12:01;151602.28;;;16.41;47.44
12358;BME280;6243;51.244;6.774;2023-04-10T05:14:27;151638.09;;;16.55;47.31
12358;BME280;6243;51.244;6.774;2023-04-10T05:16:52;151781.19;;;17.11;46.50
12358;BME280;6243;51.244;6.774;2023-04-10T05:19:18;151806.72;;;17.21;46.21
12358;BME280;6243;51.244;6.774;2023-04-10T05:21:43;151664.94;;;16.65;47.28
12358;BME280;6243;51.244;6.774;2023-04-10T05:24:09;151717.31;;;16.86;46.64
12358;BME280;6243;51.244;6.774;2023-04-10T05:26:36;151620.16;;;16.48;46.86
12358;BME280;6243;51.244;6.774;2023-04-10T05:29:01;151666.19;;;16.66;46.93
12358;BME280;6243;51.244;6.774;2023-04-10T05:31:27;151747.94;;;16.98;46.60
12358;BME280;6243;51.244;6.774;2023-04-10T05:33:52;151689.16;;;16.75;46.94
12358;BME280;6243;51.244;6.774;2023-04-10T05:36:18;151979.31;;;17.89;45.20
12358;BME280;6243;51.244;6.774;2023-04-10T05:38:43;151857.81;;;17.41;45.85
12358;BME280;6243;51.244;6.774;2023-04-10T05:41:09;151978.06;;;17.89;45.03
12358;BME280;6243;51.244;6.774;2023-04-10T05:43:35;152076.53;;;18.27;44.38
12358;BME280;6243;51.244;6.774;2023-04-10T05:46:01;151850.19;;;17.38;45.93
12358;BME280;6243;51.244;6.774;2023-04-10T05:48:26;152007.44;;;18.00;44.80
12358;BME280;6243;51.244;6.774;2023-04-10T05:50:52;151888.56;;;17.53;45.94
12358;BME280;6243;51.244;6.774;2023-04-10T05:53:18;151998.50;;;17.97;45.00
12358;BME280;6243;51.244;6.774;2023-04-10T05:55:44;151762.00;;;17.03;46.63
12358;BME280;6243;51.244;6.774;2023-04-10T05:58:09;151892.38;;;17.55;45.59
12358;BME280;6243;51.244;6.774;2023-04-10T06:00:37;151850.19;;;17.38;45.88
12358;BME280;6243;51.244;6.774;2023-04-10T06:03:02;152036.84;;;18.12;44.81
12358;BME280;6243;51.244;6.774;2023-04-10T06:05:28;151880.84;;;17.50;45.78
12358;BME280;6243;51.244;6.774;2023-04-10T06:07:53;151903.88;;;17.59;45.56
12358;BME280;6243;51.244;6.774;2023-04-10T06:10:19;151859.13;;;17.42;45.89
12358;BME280;6243;51.244;6.774;2023-04-10T06:12:44;151664.94;;;16.65;46.91
12358;BME280;6243;51.244;6.774;2023-04-10T06:15:10;151921.78;;;17.66;45.39
12358;BME280;6243;51.244;6.774;2023-04-10T06:17:41;151917.97;;;17.65;45.20
12358;BME280;6243;51.244;6.774;2023-04-10T06:20:08;151640.66;;;16.56;46.96
12358;BME280;6243;51.244;6.774;2023-04-10T06:22:34;151885.97;;;17.52;45.94
12358;BME280;6243;51.244;6.774;2023-04-10T06:24:59;151802.91;;;17.20;45.80
12358;BME280;6243;51.244;6.774;2023-04-10T06:27:26;151921.78;;;17.66;44.86
12358;BME280;6243;51.244;6.774;2023-04-10T06:29:51;152013.81;;;18.03;45.01
12358;BME280;6243;51.244;6.774;2023-04-10T06:32:17;152021.50;;;18.06;44.76
12358;BME280;6243;51.244;6.774;2023-04-10T06:34:43;151885.97;;;17.52;45.28
12358;BME280;6243;51.244;6.774;2023-04-10T06:37:09;152047.09;;;18.16;44.67
12358;BME280;6243;51.244;6.774;2023-04-10T06:39:34;152058.59;;;18.20;45.01
12358;BME280;6243;51.244;6.774;2023-04-10T06:42:00;151808.00;;;17.22;45.91
12358;BME280;6243;51.244;6.774;2023-04-10T06:44:25;152143.06;;;18.54;44.16
12358;BME280;6243;51.244;6.774;2023-04-10T06:46:51;152195.50;;;18.74;43.66
12358;BME280;6243;51.244;6.774;2023-04-10T06:49:16;152236.44;;;18.90;43.69
12358;BME280;6243;51.244;6.774;2023-04-10T06:51:43;152082.88;;;18.30;43.99
12358;BME280;6243;51.244;6.774;2023-04-10T06:54:09;152062.44;;;18.22;43.92
12358;BME280;6243;51.244;6.774;2023-04-10T06:56:34;151920.50;;;17.66;44.88
12358;BME280;6243;51.244;6.774;2023-04-10T06:59:00;152016.41;;;18.04;44.70
12358;BME280;6243;51.244;6.774;2023-04-10T07:01:25;152029.19;;;18.09;44.10
12358;BME280;6243;51.244;6.774;2023-04-10T07:03:51;152160.97;;;18.61;43.18
12358;BME280;6243;51.244;6.774;2023-04-10T07:06:16;152100.78;;;18.37;43.75
12358;BME280;6243;51.244;6.774;2023-04-10T07:08:43;152070.13;;;18.25;44.04
12358;BME280;6243;51.244;6.774;2023-04-10T07:11:09;151993.38;;;17.95;44.22
12358;BME280;6243;51.244;6.774;2023-04-10T07:13:34;152217.22;;;18.83;43.05
12358;BME280;6243;51.244;6.774;2023-04-10T07:15:59;151997.22;;;17.96;44.08
12358;BME280;6243;51.244;6.774;2023-04-10T07:18:25;152135.34;;;18.51;43.83
12358;BME280;6243;51.244;6.774;2023-04-10T07:20:50;152209.59;;;18.80;43.02
12358;BME280;6243;51.244;6.774;2023-04-10T07:23:16;152237.72;;;18.91;42.71
12358;BME280;6243;51.244;6.774;2023-04-10T07:25:43;152414.34;;;19.60;41.87
12358;BME280;6243;51.244;6.774;2023-04-10T07:28:08;152336.25;;;19.30;41.99
12358;BME280;6243;51.244;6.774;2023-04-10T07:30:34;152320.88;;;19.24;42.15
12358;BME280;6243;51.244;6.774;2023-04-10T07:32:59;152190.38;;;18.72;42.69
12358;BME280;6243;51.244;6.774;2023-04-10T07:35:25;152387.50;;;19.50;42.02
12358;BME280;6243;51.244;6.774;2023-04-10T07:37:51;152297.84;;;19.14;42.14
12358;BME280;6243;51.244;6.774;2023-04-10T07:40:16;152491.19;;;19.91;41.79
12358;BME280;6243;51.244;6.774;2023-04-10T07:42:43;152166.06;;;18.63;42.86
12358;BME280;6243;51.244;6.774;2023-04-10T07:45:09;152528.34;;;20.05;41.59
12358;BME280;6243;51.244;6.774;2023-04-10T07:47:35;152419.47;;;19.62;42.27
12358;BME280;6243;51.244;6.774;2023-04-10T07:50:01;152443.81;;;19.72;42.02
12358;BME280;6243;51.244;6.774;2023-04-10T07:52:26;152552.63;;;20.15;41.16
12358;BME280;6243;51.244;6.774;2023-04-10T07:54:52;152551.41;;;20.14;41.08
12358;BME280;6243;51.244;6.774;2023-04-10T07:57:17;152538.56;;;20.09;41.14
12358;BME280;6243;51.244;6.774;2023-04-10T07:59:44;152260.75;;;19.00;42.37
12358;BME280;6243;51.244;6.774;2023-04-10T08:02:09;152542.41;;;20.11;41.27
12358;BME280;6243;51.244;6.774;2023-04-10T08:04:35;152242.84;;;18.93;42.46
12358;BME280;6243;51.244;6.774;2023-04-10T08:07:00;152317.06;;;19.22;42.08
12358;BME280;6243;51.244;6.774;2023-04-10T08:09:26;152340.09;;;19.31;42.24
12358;BME280;6243;51.244;6.774;2023-04-10T08:11:51;152518.06;;;20.01;40.76
12358;BME280;6243;51.244;6.774;2023-04-10T08:14:17;152374.69;;;19.45;41.86
12358;BME280;6243;51.244;6.774;2023-04-10T08:16:44;152625.72;;;20.43;40.97
12358;BME280;6243;51.244;6.774;2023-04-10T08:19:09;152779.47;;;21.04;40.04
12358;BME280;6243;51.244;6.774;2023-04-10T08:21:35;152478.38;;;19.86;41.13
12358;BME280;6243;51.244;6.774;2023-04-10T08:24:01;152647.47;;;20.52;40.37
12358;BME280;6243;51.244;6.774;2023-04-10T08:26:27;152615.47;;;20.39;40.74
12358;BME280;6243;51.244;6.774;2023-04-10T08:28:55;152396.44;;;19.53;41.14
12358;BME280;6243;51.244;6.774;2023-04-10T08:31:22;152820.50;;;21.20;39.62
12358;BME280;6243;51.244;6.774;2023-04-10T08:33:49;152632.13;;;20.46;39.59
12358;BME280;6243;51.244;6.774;2023-04-10T08:36:15;152917.94;;;21.58;39.13
12358;BME280;6243;51.244;6.774;2023-04-10T08:38:41;153005.19;;;21.93;39.12
12358;BME280;6243;51.244;6.774;2023-04-10T08:41:09;152570.63;;;20.22;40.18
12358;BME280;6243;51.244;6.774;2023-04-10T08:43:34;152779.47;;;21.04;39.76
12358;BME280;6243;51.244;6.774;2023-04-10T08:46:00;152792.31;;;21.09;39.22
12358;BME280;6243;51.244;6.774;2023-04-10T08:48:31;152471.97;;;19.83;41.01
12358;BME280;6243;51.244;6.774;2023-04-10T08:51:03;152737.19;;;20.87;39.76
12358;BME280;6243;51.244;6.774;2023-04-10T08:53:30;152928.19;;;21.62;38.74
12358;BME280;6243;51.244;6.774;2023-04-10T08:55:56;152930.72;;;21.63;38.50
12358;BME280;6243;51.244;6.774;2023-04-10T08:58:23;152732.06;;;20.85;39.34
12358;BME280;6243;51.244;6.774;2023-04-10T09:00:48;152908.94;;;21.55;38.87
12358;BME280;6243;51.244;6.774;2023-04-10T09:03:15;152676.94;;;20.64;39.77
12358;BME280;6243;51.244;6.774;2023-04-10T09:05:41;152556.50;;;20.16;40.39
12358;BME280;6243;51.244;6.774;2023-04-10T09:08:08;152941.03;;;21.67;38.48
12358;BME280;6243;51.244;6.774;2023-04-10T09:10:34;152785.91;;;21.06;39.15
12358;BME280;6243;51.244;6.774;2023-04-10T09:12:59;152862.81;;;21.37;38.48
12358;BME280;6243;51.244;6.774;2023-04-10T09:15:25;153234.81;;;22.83;37.59
12358;BME280;6243;51.244;6.774;2023-04-10T09:17:54;153296.38;;;23.07;36.71
12358;BME280;6243;51.244;6.774;2023-04-10T09:20:21;153087.22;;;22.25;37.99
12358;BME280;6243;51.244;6.774;2023-04-10T09:22:47;152970.50;;;21.79;38.19
12358;BME280;6243;51.244;6.774;2023-04-10T09:25:28;153130.84;;;22.42;37.60
12358;BME280;6243;51.244;6.774;2023-04-10T09:27:59;153087.22;;;22.25;37.17
12358;BME280;6243;51.244;6.774;2023-04-10T09:30:32;153082.09;;;22.23;37.76
12358;BME280;6243;51.244;6.774;2023-04-10T09:32:58;153139.81;;;22.45;36.85
12358;BME280;6243;51.244;6.774;2023-04-10T09:35:34;153233.53;;;22.82;36.86
12358;BME280;6243;51.244;6.774;2023-04-10T09:38:00;153201.47;;;22.70;37.00
12358;BME280;6243;51.244;6.774;2023-04-10T09:40:27;153076.97;;;22.21;37.30
12358;BME280;6243;51.244;6.774;2023-04-10T09:42:53;153014.13;;;21.96;37.62
12358;BME280;6243;51.244;6.774;2023-04-10T09:45:19;153053.88;;;22.12;37.30
12358;BME280;6243;51.244;6.774;2023-04-10T09:48:00;153144.97;;;22.47;36.63
12358;BME280;6243;51.244;6.774;2023-04-10T09:50:33;153157.78;;;22.52;36.70
12358;BME280;6243;51.244;6.774;2023-04-10T09:52:58;153028.25;;;22.02;36.93
12358;BME280;6243;51.244;6.774;2023-04-10T09:55:24;153245.06;;;22.87;36.38
12358;BME280;6243;51.244;6.774;2023-04-10T09:57:51;153279.72;;;23.00;35.99
12358;BME280;6243;51.244;6.774;2023-04-10T10:00:17;153309.22;;;23.12;35.83
12358;BME280;6243;51.244;6.774;2023-04-10T10:02:43;153364.44;;;23.34;35.33
12358;BME280;6243;51.244;6.774;2023-04-10T10:05:09;153138.56;;;22.45;36.53
12358;BME280;6243;51.244;6.774;2023-04-10T10:07:35;153427.38;;;23.58;35.39
12358;BME280;6243;51.244;6.774;2023-04-10T10:10:02;153524.97;;;23.96;35.25
12358;BME280;6243;51.244;6.774;2023-04-10T10:12:33;153549.41;;;24.06;34.62
12358;BME280;6243;51.244;6.774;2023-04-10T10:15:06;153629.03;;;24.37;34.99
12358;BME280;6243;51.244;6.774;2023-04-10T10:17:36;153680.41;;;24.57;34.73
12358;BME280;6243;51.244;6.774;2023-04-10T10:20:06;153325.91;;;23.18;35.42
12358;BME280;6243;51.244;6.774;2023-04-10T10:22:34;153666.31;;;24.52;35.17
12358;BME280;6243;51.244;6.774;2023-04-10T10:25:01;153659.88;;;24.49;34.50
12358;BME280;6243;51.244;6.774;2023-04-10T10:27:27;153432.53;;;23.60;34.92
12358;BME280;6243;51.244;6.774;2023-04-10T10:29:55;153469.78;;;23.75;34.55
12358;BME280;6243;51.244;6.774;2023-04-10T10:32:25;153494.13;;;23.84;35.13
12358;BME280;6243;51.244;6.774;2023-04-10T10:34:52;153662.47;;;24.50;34.79
12358;BME280;6243;51.244;6.774;2023-04-10T10:37:18;153559.69;;;24.10;34.80
12358;BME280;6243;51.244;6.774;2023-04-10T10:39:49;153572.53;;;24.15;34.67
12358;BME280;6243;51.244;6.774;2023-04-10T10:42:21;153449.19;;;23.67;34.63
12358;BME280;6243;51.244;6.774;2023-04-10T10:44:51;153377.34;;;23.39;35.01
12358;BME280;6243;51.244;6.774;2023-04-10T10:47:21;153567.41;;;24.13;34.23
12358;BME280;6243;51.244;6.774;2023-04-10T10:49:54;153535.22;;;24.00;34.38
12358;BME280;6243;51.244;6.774;2023-04-10T10:52:38;153535.22;;;24.00;33.75
12358;BME280;6243;51.244;6.774;2023-04-10T10:55:29;153306.69;;;23.11;34.43
12358;BME280;6243;51.244;6.774;2023-04-10T10:57:56;153311.81;;;23.13;35.01
12358;BME280;6243;51.244;6.774;2023-04-10T11:00:23;153614.94;;;24.32;33.82
12358;BME280;6243;51.244;6.774;2023-04-10T11:05:49;153659.88;;;24.49;34.39
12358;BME280;6243;51.244;6.774;2023-04-10T11:08:15;153562.28;;;24.11;34.64
12358;BME280;6243;51.244;6.774;2023-04-10T11:10:59;153422.25;;;23.56;34.63
12358;BME280;6243;51.244;6.774;2023-04-10T11:13:25;153737.03;;;24.80;34.28
12358;BME280;6243;51.244;6.774;2023-04-10T11:15:51;153577.66;;;24.17;34.21
12358;BME280;6243;51.244;6.774;2023-04-10T11:18:16;153716.41;;;24.72;33.69
12358;BME280;6243;51.244;6.774;2023-04-10T11:21:11;153767.84;;;24.92;32.71
12358;BME280;6243;51.244;6.774;2023-04-10T11:23:37;153566.13;;;24.13;33.74
12358;BME280;6243;51.244;6.774;2023-04-10T11:26:03;153524.97;;;23.96;33.88
12358;BME280;6243;51.244;6.774;2023-04-10T11:28:36;153584.09;;;24.20;34.38
12358;BME280;6243;51.244;6.774;2023-04-10T11:31:18;153480.03;;;23.79;34.45
12358;BME280;6243;51.244;6.774;2023-04-10T11:33:45;153762.69;;;24.90;33.49
12358;BME280;6243;51.244;6.774;2023-04-10T11:36:14;153779.41;;;24.96;33.29
12358;BME280;6243;51.244;6.774;2023-04-10T11:38:40;153540.41;;;24.03;33.93
12358;BME280;6243;51.244;6.774;2023-04-10T11:41:05;153587.94;;;24.21;34.62
12358;BME280;6243;51.244;6.774;2023-04-10T11:43:31;153685.59;;;24.59;34.20
12358;BME280;6243;51.244;6.774;2023-04-10T11:46:05;153882.25;;;25.36;33.44
12358;BME280;6243;51.244;6.774;2023-04-10T11:48:31;153575.13;;;24.16;34.26
12358;BME280;6243;51.244;6.774;2023-04-10T11:50:56;153400.44;;;23.48;34.98
12358;BME280;6243;51.244;6.774;2023-04-10T11:53:23;153641.91;;;24.42;34.19
12358;BME280;6243;51.244;6.774;2023-04-10T11:55:48;153676.56;;;24.56;34.31
12358;BME280;6243;51.244;6.774;2023-04-10T11:58:23;153415.84;;;23.54;35.44
12358;BME280;6243;51.244;6.774;2023-04-10T12:00:59;153766.59;;;24.91;33.80
12358;BME280;6243;51.244;6.774;2023-04-10T12:03:36;153748.59;;;24.84;33.44
12358;BME280;6243;51.244;6.774;2023-04-10T12:06:03;153744.69;;;24.83;33.62
12358;BME280;6243;51.244;6.774;2023-04-10T12:08:34;153707.44;;;24.68;33.89
12358;BME280;6243;51.244;6.774;2023-04-10T12:11:00;153784.59;;;24.98;32.84
12358;BME280;6243;51.244;6.774;2023-04-10T12:13:26;153716.41;;;24.72;33.28
12358;BME280;6243;51.244;6.774;2023-04-10T12:15:53;153572.53;;;24.15;34.13
12358;BME280;6243;51.244;6.774;2023-04-10T12:18:21;153686.84;;;24.60;33.46
12358;BME280;6243;51.244;6.774;2023-04-10T12:20:47;153803.81;;;25.06;33.17
12358;BME280;6243;51.244;6.774;2023-04-10T12:23:13;153540.41;;;24.03;34.28
12358;BME280;6243;51.244;6.774;2023-04-10T12:25:40;153784.59;;;24.98;33.62
12358;BME280;6243;51.244;6.774;2023-04-10T12:28:06;153611.06;;;24.30;34.46
12358;BME280;6243;51.244;6.774;2023-04-10T12:30:31;153593.06;;;24.23;34.61
12358;BME280;6243;51.244;6.774;2023-04-10T12:32:57;153726.75;;;24.76;33.44
12358;BME280;6243;51.244;6.774;2023-04-10T12:35:36;153620.06;;;24.34;34.15
12358;BME280;6243;51.244;6.774;2023-04-10T12:38:02;153701.00;;;24.65;33.74
12358;BME280;6243;51.244;6.774;2023-04-10T12:40:27;153749.88;;;24.85;33.22
12358;BME280;6243;51.244;6.774;2023-04-10T12:42:54;153950.41;;;25.63;33.68
12358;BME280;6243;51.244;6.774;2023-04-10T12:45:20;153780.69;;;24.97;33.50
12358;BME280;6243;51.244;6.774;2023-04-10T12:47:46;153663.72;;;24.51;33.81
12358;BME280;6243;51.244;6.774;2023-04-10T12:50:13;153789.72;;;25.00;33.36
12358;BME280;6243;51.244;6.774;2023-04-10T12:52:40;153906.72;;;25.46;33.12
12358;BME280;6243;51.244;6.774;2023-04-10T12:55:10;153886.09;;;25.38;33.36
12358;BME280;6243;51.244;6.774;2023-04-10T12:57:36;153773.03;;;24.94;33.15
12358;BME280;6243;51.244;6.774;2023-04-10T13:00:03;153731.91;;;24.78;33.63
12358;BME280;6243;51.244;6.774;2023-04-10T13:02:29;153914.41;;;25.49;33.34